Amasa, Michigan
Current Conditions -  °F | °C
As of 11:10 PM on Thursday 30 Oct 2014 (Local Time) from KIMT Reporting Station
Overcast Overcast  
Wind Chill: 27°   Ceiling: 2100
Heat Index: 36°   Visibility: 10mi
Dew Point: 31°   Wind: 14mph
Humidity: 82%   Direction: 320°NW
Pressure: 29.99"   Gusts: NA
Location:  46.23°N, 88.45°W
Report Text: KIMT 310410Z AUTO 32012KT 10SM SCT016 BKN021 OVC060 02/M01 A2999 RMK AO2 RAE07 P0000 T00221006
Loading
Personal Weather Stations






























Interactive Weather Map New forecast layout! Learn more

10-Day Weather Forecast

Advertisements
Track Severe Weather on mobile